sensor_id;sensor_type;location;lat;lon;timestamp;pressure;altitude;pressure_sealevel;temperature;humidity
63090;BME280;49174;43.198;27.824;2022-12-20T00:00:14;104058.72;;;-0.34;82.17
63090;BME280;49174;43.198;27.824;2022-12-20T00:02:39;104059.59;;;-0.34;82.20
63090;BME280;49174;43.198;27.824;2022-12-20T00:05:05;104060.16;;;-0.23;81.31
63090;BME280;49174;43.198;27.824;2022-12-20T00:07:31;104054.72;;;-0.18;81.78
63090;BME280;49174;43.198;27.824;2022-12-20T00:09:57;104056.41;;;-0.15;81.68
63090;BME280;49174;43.198;27.824;2022-12-20T00:12:22;104057.44;;;-0.19;81.87
63090;BME280;49174;43.198;27.824;2022-12-20T00:14:48;104065.31;;;-0.18;81.87
63090;BME280;49174;43.198;27.824;2022-12-20T00:17:14;104061.16;;;-0.27;81.74
63090;BME280;49174;43.198;27.824;2022-12-20T00:19:39;104062.84;;;-0.24;82.45
63090;BME280;49174;43.198;27.824;2022-12-20T00:22:05;104064.88;;;-0.03;82.11
63090;BME280;49174;43.198;27.824;2022-12-20T00:24:31;104066.72;;;-0.05;81.56
63090;BME280;49174;43.198;27.824;2022-12-20T00:26:57;104062.06;;;0.02;81.28
63090;BME280;49174;43.198;27.824;2022-12-20T00:29:22;104060.53;;;-0.05;81.03
63090;BME280;49174;43.198;27.824;2022-12-20T00:31:48;104053.38;;;-0.03;81.52
63090;BME280;49174;43.198;27.824;2022-12-20T00:34:14;104044.28;;;0.06;80.99
63090;BME280;49174;43.198;27.824;2022-12-20T00:36:40;104059.81;;;0.18;80.89
63090;BME280;49174;43.198;27.824;2022-12-20T00:39:05;104057.94;;;0.21;81.07
63090;BME280;49174;43.198;27.824;2022-12-20T00:41:33;104052.00;;;0.13;81.28
63090;BME280;49174;43.198;27.824;2022-12-20T00:43:59;104045.38;;;-0.02;82.00
63090;BME280;49174;43.198;27.824;2022-12-20T00:46:25;104039.31;;;-0.05;82.94
63090;BME280;49174;43.198;27.824;2022-12-20T00:48:51;104027.63;;;0.01;82.94
63090;BME280;49174;43.198;27.824;2022-12-20T00:51:20;104031.88;;;0.06;82.32
63090;BME280;49174;43.198;27.824;2022-12-20T00:53:46;104026.78;;;-0.02;82.53
63090;BME280;49174;43.198;27.824;2022-12-20T00:56:12;104024.81;;;0.05;81.35
63090;BME280;49174;43.198;27.824;2022-12-20T00:58:40;104022.06;;;0.08;82.27
63090;BME280;49174;43.198;27.824;2022-12-20T01:01:25;104017.34;;;0.18;81.46
63090;BME280;49174;43.198;27.824;2022-12-20T01:03:51;104025.09;;;0.24;81.66
63090;BME280;49174;43.198;27.824;2022-12-20T01:06:19;104025.25;;;0.19;81.44
63090;BME280;49174;43.198;27.824;2022-12-20T01:08:45;104016.13;;;0.28;81.34
63090;BME280;49174;43.198;27.824;2022-12-20T01:13:41;104013.72;;;0.20;80.84
63090;BME280;49174;43.198;27.824;2022-12-20T01:16:16;104019.22;;;0.14;82.09
63090;BME280;49174;43.198;27.824;2022-12-20T01:18:42;104005.59;;;0.25;81.45
63090;BME280;49174;43.198;27.824;2022-12-20T01:21:10;104009.47;;;0.15;83.05
63090;BME280;49174;43.198;27.824;2022-12-20T01:23:36;104012.44;;;0.32;82.57
63090;BME280;49174;43.198;27.824;2022-12-20T01:26:04;104008.44;;;0.19;81.74
63090;BME280;49174;43.198;27.824;2022-12-20T01:28:31;104001.50;;;0.15;82.23
63090;BME280;49174;43.198;27.824;2022-12-20T01:30:56;103999.03;;;0.37;82.12
63090;BME280;49174;43.198;27.824;2022-12-20T01:33:22;103997.38;;;0.33;81.93
63090;BME280;49174;43.198;27.824;2022-12-20T01:36:03;103996.66;;;0.28;81.94
63090;BME280;49174;43.198;27.824;2022-12-20T01:38:29;103982.50;;;0.27;81.70
63090;BME280;49174;43.198;27.824;2022-12-20T01:40:56;103979.00;;;0.27;82.12
63090;BME280;49174;43.198;27.824;2022-12-20T01:43:23;103963.25;;;0.20;82.36
63090;BME280;49174;43.198;27.824;2022-12-20T01:45:49;103960.72;;;0.17;81.81
63090;BME280;49174;43.198;27.824;2022-12-20T01:48:18;103963.59;;;0.10;82.37
63090;BME280;49174;43.198;27.824;2022-12-20T01:50:47;103958.19;;;0.13;82.10
63090;BME280;49174;43.198;27.824;2022-12-20T01:53:14;103960.53;;;0.22;82.41
63090;BME280;49174;43.198;27.824;2022-12-20T01:55:41;103953.50;;;0.21;81.40
63090;BME280;49174;43.198;27.824;2022-12-20T01:58:09;103957.03;;;0.21;82.21
63090;BME280;49174;43.198;27.824;2022-12-20T02:00:36;103952.63;;;0.20;81.62
63090;BME280;49174;43.198;27.824;2022-12-20T02:03:07;103950.13;;;0.16;81.92
63090;BME280;49174;43.198;27.824;2022-12-20T02:05:39;103948.72;;;0.06;81.84
63090;BME280;49174;43.198;27.824;2022-12-20T02:08:07;103951.75;;;-0.07;82.18
63090;BME280;49174;43.198;27.824;2022-12-20T02:13:11;103937.94;;;-0.18;82.89
63090;BME280;49174;43.198;27.824;2022-12-20T02:18:28;103936.47;;;-0.28;84.00
63090;BME280;49174;43.198;27.824;2022-12-20T02:26:41;103932.59;;;-0.16;85.15
63090;BME280;49174;43.198;27.824;2022-12-20T02:32:19;103926.50;;;-0.20;84.54
63090;BME280;49174;43.198;27.824;2022-12-20T02:34:48;103923.03;;;-0.22;85.56
63090;BME280;49174;43.198;27.824;2022-12-20T02:37:14;103923.94;;;-0.23;84.45
63090;BME280;49174;43.198;27.824;2022-12-20T02:39:40;103916.31;;;-0.34;84.63
63090;BME280;49174;43.198;27.824;2022-12-20T02:42:10;103917.47;;;-0.42;85.57
63090;BME280;49174;43.198;27.824;2022-12-20T02:44:40;103924.25;;;-0.32;85.40
63090;BME280;49174;43.198;27.824;2022-12-20T02:47:39;103922.53;;;-0.35;85.26
63090;BME280;49174;43.198;27.824;2022-12-20T02:50:07;103911.38;;;-0.44;86.56
63090;BME280;49174;43.198;27.824;2022-12-20T02:52:33;103920.00;;;-0.38;86.21
63090;BME280;49174;43.198;27.824;2022-12-20T02:55:00;103930.41;;;-0.32;85.80
63090;BME280;49174;43.198;27.824;2022-12-20T03:00:14;103912.44;;;-0.22;86.84
63090;BME280;49174;43.198;27.824;2022-12-20T03:02:42;103910.78;;;-0.26;86.90
63090;BME280;49174;43.198;27.824;2022-12-20T03:05:27;103915.19;;;-0.25;87.32
63090;BME280;49174;43.198;27.824;2022-12-20T03:07:52;103906.44;;;-0.29;86.91
63090;BME280;49174;43.198;27.824;2022-12-20T03:10:19;103905.59;;;-0.31;86.89
63090;BME280;49174;43.198;27.824;2022-12-20T03:12:45;103901.97;;;-0.28;86.25
63090;BME280;49174;43.198;27.824;2022-12-20T03:15:11;103905.97;;;-0.41;85.48
63090;BME280;49174;43.198;27.824;2022-12-20T03:17:36;103898.16;;;-0.48;85.31
63090;BME280;49174;43.198;27.824;2022-12-20T03:20:05;103894.66;;;-0.48;85.47
63090;BME280;49174;43.198;27.824;2022-12-20T03:22:32;103901.00;;;-0.52;84.98
63090;BME280;49174;43.198;27.824;2022-12-20T03:24:59;103902.56;;;-0.47;84.96
63090;BME280;49174;43.198;27.824;2022-12-20T03:27:25;103903.53;;;-0.49;84.88
63090;BME280;49174;43.198;27.824;2022-12-20T03:29:53;103899.97;;;-0.48;85.46
63090;BME280;49174;43.198;27.824;2022-12-20T03:32:19;103910.88;;;-0.59;85.21
63090;BME280;49174;43.198;27.824;2022-12-20T03:34:44;103897.72;;;-0.62;85.85
63090;BME280;49174;43.198;27.824;2022-12-20T03:37:10;103904.06;;;-0.66;86.17
63090;BME280;49174;43.198;27.824;2022-12-20T03:39:35;103905.50;;;-0.56;86.00
63090;BME280;49174;43.198;27.824;2022-12-20T03:42:01;103898.84;;;-0.69;86.79
63090;BME280;49174;43.198;27.824;2022-12-20T03:44:26;103902.94;;;-0.59;87.09
63090;BME280;49174;43.198;27.824;2022-12-20T03:46:52;103896.94;;;-0.64;87.97
63090;BME280;49174;43.198;27.824;2022-12-20T03:49:17;103896.66;;;-0.56;88.54
63090;BME280;49174;43.198;27.824;2022-12-20T03:51:43;103895.03;;;-0.60;86.91
63090;BME280;49174;43.198;27.824;2022-12-20T03:54:08;103895.81;;;-0.57;87.32
63090;BME280;49174;43.198;27.824;2022-12-20T03:56:34;103905.59;;;-0.59;87.36
63090;BME280;49174;43.198;27.824;2022-12-20T03:58:59;103897.09;;;-0.70;87.31
63090;BME280;49174;43.198;27.824;2022-12-20T04:01:27;103896.84;;;-0.61;87.51
63090;BME280;49174;43.198;27.824;2022-12-20T04:03:53;103901.41;;;-0.66;86.93
63090;BME280;49174;43.198;27.824;2022-12-20T04:06:19;103909.25;;;-0.63;86.87
63090;BME280;49174;43.198;27.824;2022-12-20T04:08:45;103906.47;;;-0.58;87.42
63090;BME280;49174;43.198;27.824;2022-12-20T04:11:11;103913.31;;;-0.51;86.96
63090;BME280;49174;43.198;27.824;2022-12-20T04:13:48;103905.22;;;-0.47;87.09
63090;BME280;49174;43.198;27.824;2022-12-20T04:16:16;103898.97;;;-0.44;87.35
63090;BME280;49174;43.198;27.824;2022-12-20T04:18:42;103897.91;;;-0.38;87.11
63090;BME280;49174;43.198;27.824;2022-12-20T04:21:09;103902.91;;;-0.29;87.44
63090;BME280;49174;43.198;27.824;2022-12-20T04:23:36;103902.72;;;-0.23;86.36
63090;BME280;49174;43.198;27.824;2022-12-20T04:26:03;103899.25;;;-0.25;86.03
63090;BME280;49174;43.198;27.824;2022-12-20T04:28:29;103902.72;;;-0.23;86.44
63090;BME280;49174;43.198;27.824;2022-12-20T04:30:57;103908.03;;;-0.23;85.51
63090;BME280;49174;43.198;27.824;2022-12-20T04:33:23;103905.09;;;-0.14;86.03
63090;BME280;49174;43.198;27.824;2022-12-20T04:35:50;103915.25;;;-0.28;85.96
63090;BME280;49174;43.198;27.824;2022-12-20T04:38:17;103913.00;;;-0.40;86.76
63090;BME280;49174;43.198;27.824;2022-12-20T04:40:43;103912.97;;;-0.39;86.70
63090;BME280;49174;43.198;27.824;2022-12-20T04:43:09;103913.81;;;-0.38;86.51
63090;BME280;49174;43.198;27.824;2022-12-20T04:45:35;103911.59;;;-0.24;86.31
63090;BME280;49174;43.198;27.824;2022-12-20T04:48:00;103919.13;;;-0.10;85.46
63090;BME280;49174;43.198;27.824;2022-12-20T04:50:26;103914.47;;;-0.04;85.24
63090;BME280;49174;43.198;27.824;2022-12-20T04:52:52;103912.66;;;-0.02;85.30
63090;BME280;49174;43.198;27.824;2022-12-20T04:55:37;103906.31;;;0.03;84.99
63090;BME280;49174;43.198;27.824;2022-12-20T04:58:05;103908.78;;;0.09;84.16
63090;BME280;49174;43.198;27.824;2022-12-20T05:00:31;103902.13;;;-0.05;84.81
63090;BME280;49174;43.198;27.824;2022-12-20T05:02:56;103902.22;;;-0.08;85.54
63090;BME280;49174;43.198;27.824;2022-12-20T05:05:22;103894.41;;;-0.12;85.14
63090;BME280;49174;43.198;27.824;2022-12-20T05:07:48;103899.31;;;-0.28;85.81
63090;BME280;49174;43.198;27.824;2022-12-20T05:10:13;103899.25;;;-0.25;86.15
63090;BME280;49174;43.198;27.824;2022-12-20T05:12:39;103901.00;;;-0.24;86.84
63090;BME280;49174;43.198;27.824;2022-12-20T05:15:05;103894.84;;;-0.26;86.20
63090;BME280;49174;43.198;27.824;2022-12-20T05:17:32;103895.06;;;-0.32;86.37
63090;BME280;49174;43.198;27.824;2022-12-20T05:19:58;103890.59;;;-0.32;87.08
63090;BME280;49174;43.198;27.824;2022-12-20T05:22:23;103903.00;;;-0.32;87.33
63090;BME280;49174;43.198;27.824;2022-12-20T05:25:09;103911.81;;;-0.30;86.34
63090;BME280;49174;43.198;27.824;2022-12-20T05:27:54;103910.53;;;-0.18;85.71
63090;BME280;49174;43.198;27.824;2022-12-20T05:30:19;103909.38;;;-0.10;86.47
63090;BME280;49174;43.198;27.824;2022-12-20T05:32:45;103911.09;;;-0.09;86.32
63090;BME280;49174;43.198;27.824;2022-12-20T05:35:10;103901.81;;;0.05;85.28
63090;BME280;49174;43.198;27.824;2022-12-20T05:37:45;103897.44;;;0.04;86.10
63090;BME280;49174;43.198;27.824;2022-12-20T05:40:11;103898.25;;;0.06;86.03
63090;BME280;49174;43.198;27.824;2022-12-20T05:42:36;103897.94;;;-0.12;86.18
63090;BME280;49174;43.198;27.824;2022-12-20T05:45:03;103905.44;;;0.02;85.84
63090;BME280;49174;43.198;27.824;2022-12-20T05:47:30;103905.59;;;-0.03;85.72
63090;BME280;49174;43.198;27.824;2022-12-20T05:50:01;103906.41;;;-0.01;86.60
63090;BME280;49174;43.198;27.824;2022-12-20T05:52:27;103897.44;;;0.04;85.94
63090;BME280;49174;43.198;27.824;2022-12-20T05:54:53;103898.34;;;0.03;85.90
63090;BME280;49174;43.198;27.824;2022-12-20T05:57:18;103901.09;;;-0.01;84.16
63090;BME280;49174;43.198;27.824;2022-12-20T05:59:44;103902.22;;;-0.08;85.32
63090;BME280;49174;43.198;27.824;2022-12-20T06:02:09;103893.56;;;-0.13;84.23
63090;BME280;49174;43.198;27.824;2022-12-20T06:04:37;103900.31;;;-0.03;84.99
63090;BME280;49174;43.198;27.824;2022-12-20T06:07:03;103905.78;;;-0.09;85.04
63090;BME280;49174;43.198;27.824;2022-12-20T06:09:30;103911.09;;;-0.09;84.69
63090;BME280;49174;43.198;27.824;2022-12-20T06:11:56;103913.72;;;-0.07;84.34
63090;BME280;49174;43.198;27.824;2022-12-20T06:14:23;103909.69;;;-0.19;84.50
63090;BME280;49174;43.198;27.824;2022-12-20T06:16:49;103916.81;;;-0.21;84.76
63090;BME280;49174;43.198;27.824;2022-12-20T06:19:14;103914.69;;;-0.10;84.67
63090;BME280;49174;43.198;27.824;2022-12-20T06:21:40;103903.13;;;-0.09;84.25
63090;BME280;49174;43.198;27.824;2022-12-20T06:24:06;103905.78;;;-0.09;84.22
63090;BME280;49174;43.198;27.824;2022-12-20T06:26:32;103900.44;;;-0.07;84.76
63090;BME280;49174;43.198;27.824;2022-12-20T06:29:04;103899.47;;;-0.05;84.04
63090;BME280;49174;43.198;27.824;2022-12-20T06:31:32;103901.44;;;-0.11;84.12
63090;BME280;49174;43.198;27.824;2022-12-20T06:33:57;103915.63;;;-0.12;84.94
63090;BME280;49174;43.198;27.824;2022-12-20T06:36:23;103915.34;;;-0.03;84.57
63090;BME280;49174;43.198;27.824;2022-12-20T06:38:49;103911.53;;;0.06;84.50
63090;BME280;49174;43.198;27.824;2022-12-20T06:41:14;103914.19;;;0.06;84.09
63090;BME280;49174;43.198;27.824;2022-12-20T06:43:40;103908.78;;;0.09;84.27
63090;BME280;49174;43.198;27.824;2022-12-20T06:46:05;103907.94;;;0.07;84.16
63090;BME280;49174;43.198;27.824;2022-12-20T06:48:31;103910.59;;;0.07;84.67
63090;BME280;49174;43.198;27.824;2022-12-20T06:50:57;103911.44;;;0.09;84.19
63090;BME280;49174;43.198;27.824;2022-12-20T06:53:23;103910.25;;;0.17;84.19
63090;BME280;49174;43.198;27.824;2022-12-20T06:55:48;103905.09;;;0.13;83.88
63090;BME280;49174;43.198;27.824;2022-12-20T06:58:15;103908.88;;;0.06;83.94
63090;BME280;49174;43.198;27.824;2022-12-20T07:00:41;103912.75;;;0.22;83.79
63090;BME280;49174;43.198;27.824;2022-12-20T07:03:06;103904.59;;;0.28;83.06
63090;BME280;49174;43.198;27.824;2022-12-20T07:05:31;103904.19;;;0.39;82.35
63090;BME280;49174;43.198;27.824;2022-12-20T07:07:57;103902.72;;;0.30;82.88
63090;BME280;49174;43.198;27.824;2022-12-20T07:10:23;103904.78;;;0.47;83.32
63090;BME280;49174;43.198;27.824;2022-12-20T07:12:48;103901.03;;;0.54;82.67
63090;BME280;49174;43.198;27.824;2022-12-20T07:15:15;103900.03;;;0.57;82.21
63090;BME280;49174;43.198;27.824;2022-12-20T07:17:40;103900.28;;;0.51;82.12
63090;BME280;49174;43.198;27.824;2022-12-20T07:20:06;103892.59;;;0.41;82.80
63090;BME280;49174;43.198;27.824;2022-12-20T07:22:32;103902.00;;;0.52;81.90
63090;BME280;49174;43.198;27.824;2022-12-20T07:24:58;103901.38;;;0.43;82.58
63090;BME280;49174;43.198;27.824;2022-12-20T07:27:24;103887.88;;;0.50;83.08
63090;BME280;49174;43.198;27.824;2022-12-20T07:29:50;103896.06;;;0.43;82.98
63090;BME280;49174;43.198;27.824;2022-12-20T07:32:16;103890.44;;;0.53;83.84
63090;BME280;49174;43.198;27.824;2022-12-20T07:34:41;103877.94;;;0.56;82.90
63090;BME280;49174;43.198;27.824;2022-12-20T07:37:08;103877.53;;;0.67;82.05
63090;BME280;49174;43.198;27.824;2022-12-20T07:39:33;103875.78;;;0.66;81.88
63090;BME280;49174;43.198;27.824;2022-12-20T07:41:59;103869.56;;;0.67;82.13
63090;BME280;49174;43.198;27.824;2022-12-20T07:44:25;103865.50;;;0.57;83.16
63090;BME280;49174;43.198;27.824;2022-12-20T07:46:50;103860.31;;;0.54;84.30
63090;BME280;49174;43.198;27.824;2022-12-20T07:49:16;103859.81;;;0.68;84.73
63090;BME280;49174;43.198;27.824;2022-12-20T07:51:49;103855.34;;;0.68;84.21
63090;BME280;49174;43.198;27.824;2022-12-20T07:54:22;103847.41;;;0.66;84.78
63090;BME280;49174;43.198;27.824;2022-12-20T07:56:53;103853.16;;;0.79;84.93
63090;BME280;49174;43.198;27.824;2022-12-20T07:59:25;103847.09;;;0.76;83.94
63090;BME280;49174;43.198;27.824;2022-12-20T08:01:51;103850.63;;;0.76;83.99
63090;BME280;49174;43.198;27.824;2022-12-20T08:04:20;103852.03;;;0.86;83.00
63090;BME280;49174;43.198;27.824;2022-12-20T08:06:49;103853.31;;;0.75;83.78
63090;BME280;49174;43.198;27.824;2022-12-20T08:09:18;103850.66;;;0.75;84.88
63090;BME280;49174;43.198;27.824;2022-12-20T08:11:46;103848.66;;;0.81;84.84
63090;BME280;49174;43.198;27.824;2022-12-20T08:14:13;103848.91;;;0.99;85.25
63090;BME280;49174;43.198;27.824;2022-12-20T08:16:39;103842.63;;;1.23;84.59
63090;BME280;49174;43.198;27.824;2022-12-20T08:19:04;103846.84;;;1.29;82.94
63090;BME280;49174;43.198;27.824;2022-12-20T08:21:30;103845.41;;;1.20;82.99
63090;BME280;49174;43.198;27.824;2022-12-20T08:23:56;103841.81;;;1.21;82.49
63090;BME280;49174;43.198;27.824;2022-12-20T08:26:21;103839.47;;;1.14;81.79
63090;BME280;49174;43.198;27.824;2022-12-20T08:28:47;103843.78;;;1.16;81.66
63090;BME280;49174;43.198;27.824;2022-12-20T08:31:13;103836.66;;;1.17;81.76
63090;BME280;49174;43.198;27.824;2022-12-20T08:33:38;103836.38;;;1.24;81.82
63090;BME280;49174;43.198;27.824;2022-12-20T08:36:07;103833.72;;;1.24;81.88
63090;BME280;49174;43.198;27.824;2022-12-20T08:38:33;103834.41;;;1.29;82.60
63090;BME280;49174;43.198;27.824;2022-12-20T08:41:08;103818.19;;;1.36;81.91
63090;BME280;49174;43.198;27.824;2022-12-20T08:43:35;103819.25;;;1.31;83.37
63090;BME280;49174;43.198;27.824;2022-12-20T08:46:01;103818.06;;;1.39;83.55
63090;BME280;49174;43.198;27.824;2022-12-20T08:48:28;103801.63;;;1.29;82.26
63090;BME280;49174;43.198;27.824;2022-12-20T08:50:55;103802.19;;;1.37;83.07
63090;BME280;49174;43.198;27.824;2022-12-20T08:53:21;103813.06;;;1.53;82.76
63090;BME280;49174;43.198;27.824;2022-12-20T08:55:47;103797.59;;;1.63;84.24
63090;BME280;49174;43.198;27.824;2022-12-20T08:58:13;103793.00;;;1.66;82.51
63090;BME280;49174;43.198;27.824;2022-12-20T09:00:40;103785.50;;;1.76;82.54
63090;BME280;49174;43.198;27.824;2022-12-20T09:03:05;103783.13;;;1.90;81.83
63090;BME280;49174;43.198;27.824;2022-12-20T09:05:32;103770.41;;;1.97;80.96
63090;BME280;49174;43.198;27.824;2022-12-20T09:07:58;103770.94;;;1.85;80.49
63090;BME280;49174;43.198;27.824;2022-12-20T09:10:23;103770.84;;;1.86;81.95
63090;BME280;49174;43.198;27.824;2022-12-20T09:12:49;103765.28;;;1.92;81.23
63090;BME280;49174;43.198;27.824;2022-12-20T09:15:15;103758.69;;;2.01;81.61
63090;BME280;49174;43.198;27.824;2022-12-20T09:17:40;103753.09;;;2.07;81.47
63090;BME280;49174;43.198;27.824;2022-12-20T09:20:06;103751.81;;;2.16;80.33
63090;BME280;49174;43.198;27.824;2022-12-20T09:22:32;103752.94;;;2.31;80.22
63090;BME280;49174;43.198;27.824;2022-12-20T09:24:57;103752.78;;;2.34;79.84
63090;BME280;49174;43.198;27.824;2022-12-20T09:27:23;103755.09;;;2.41;80.68
63090;BME280;49174;43.198;27.824;2022-12-20T09:29:48;103738.78;;;2.49;80.78
63090;BME280;49174;43.198;27.824;2022-12-20T09:32:14;103738.50;;;2.55;80.08
63090;BME280;49174;43.198;27.824;2022-12-20T09:34:39;103741.25;;;2.54;79.81
63090;BME280;49174;43.198;27.824;2022-12-20T09:37:05;103730.72;;;2.69;80.93
63090;BME280;49174;43.198;27.824;2022-12-20T09:39:30;103725.16;;;2.93;79.14
63090;BME280;49174;43.198;27.824;2022-12-20T09:41:57;103726.56;;;3.00;78.30
63090;BME280;49174;43.198;27.824;2022-12-20T09:44:28;103716.50;;;3.07;77.90
63090;BME280;49174;43.198;27.824;2022-12-20T09:47:03;103723.81;;;3.21;78.15
63090;BME280;49174;43.198;27.824;2022-12-20T09:49:33;103713.81;;;3.43;78.37
63090;BME280;49174;43.198;27.824;2022-12-20T09:57:43;103705.38;;;3.51;77.08
63090;BME280;49174;43.198;27.824;2022-12-20T10:00:18;103691.59;;;3.43;77.00
63090;BME280;49174;43.198;27.824;2022-12-20T10:02:44;103690.69;;;3.42;77.17
63090;BME280;49174;43.198;27.824;2022-12-20T10:05:28;103688.13;;;3.41;76.67
63090;BME280;49174;43.198;27.824;2022-12-20T10:08:21;103681.28;;;3.52;77.16
63090;BME280;49174;43.198;27.824;2022-12-20T10:14:45;103675.97;;;3.52;77.57
63090;BME280;49174;43.198;27.824;2022-12-20T10:17:41;103660.56;;;3.57;77.47
63090;BME280;49174;43.198;27.824;2022-12-20T10:25:49;103657.38;;;4.01;76.28
63090;BME280;49174;43.198;27.824;2022-12-20T10:28:15;103662.28;;;4.09;76.07
63090;BME280;49174;43.198;27.824;2022-12-20T10:30:42;103653.34;;;4.26;75.33
63090;BME280;49174;43.198;27.824;2022-12-20T10:33:22;103655.75;;;4.31;75.70
63090;BME280;49174;43.198;27.824;2022-12-20T10:35:49;103647.50;;;4.35;74.07
63090;BME280;49174;43.198;27.824;2022-12-20T10:38:15;103645.25;;;4.28;74.79
63090;BME280;49174;43.198;27.824;2022-12-20T10:40:59;103629.13;;;4.29;75.49
63090;BME280;49174;43.198;27.824;2022-12-20T10:43:26;103622.72;;;4.32;73.72
63090;BME280;49174;43.198;27.824;2022-12-20T10:46:01;103623.44;;;4.35;75.84
63090;BME280;49174;43.198;27.824;2022-12-20T10:53:55;103603.38;;;4.90;72.16
63090;BME280;49174;43.198;27.824;2022-12-20T10:58:56;103599.06;;;4.87;73.11
63090;BME280;49174;43.198;27.824;2022-12-20T11:01:28;103597.91;;;5.07;72.90
63090;BME280;49174;43.198;27.824;2022-12-20T11:04:02;103597.63;;;5.12;73.02
63090;BME280;49174;43.198;27.824;2022-12-20T11:06:40;103594.25;;;5.38;73.13
63090;BME280;49174;43.198;27.824;2022-12-20T11:11:56;103590.59;;;5.40;71.12
63090;BME280;49174;43.198;27.824;2022-12-20T11:14:22;103578.38;;;5.35;70.69
63090;BME280;49174;43.198;27.824;2022-12-20T11:16:50;103576.19;;;5.42;70.23
63090;BME280;49174;43.198;27.824;2022-12-20T11:28:07;103549.59;;;5.82;70.18
63090;BME280;49174;43.198;27.824;2022-12-20T11:31:15;103551.34;;;5.97;69.00
63090;BME280;49174;43.198;27.824;2022-12-20T11:33:55;103542.13;;;5.87;69.25
63090;BME280;49174;43.198;27.824;2022-12-20T11:42:21;103533.72;;;6.08;68.46
63090;BME280;49174;43.198;27.824;2022-12-20T11:45:12;103522.47;;;6.30;67.92
63090;BME280;49174;43.198;27.824;2022-12-20T11:50:35;103512.03;;;6.52;69.19
63090;BME280;49174;43.198;27.824;2022-12-20T11:53:30;103509.97;;;6.83;69.11
63090;BME280;49174;43.198;27.824;2022-12-20T11:56:00;103506.34;;;6.97;65.81
63090;BME280;49174;43.198;27.824;2022-12-20T12:01:30;103494.41;;;7.39;65.57
63090;BME280;49174;43.198;27.824;2022-12-20T12:04:20;103484.94;;;7.46;63.31
63090;BME280;49174;43.198;27.824;2022-12-20T12:07:05;103481.53;;;7.44;65.39
63090;BME280;49174;43.198;27.824;2022-12-20T12:12:03;103477.03;;;7.81;64.33
63090;BME280;49174;43.198;27.824;2022-12-20T12:14:41;103476.63;;;7.75;63.27
63090;BME280;49174;43.198;27.824;2022-12-20T12:17:23;103485.19;;;7.80;65.40
63090;BME280;49174;43.198;27.824;2022-12-20T12:19:54;103481.31;;;7.84;62.41
63090;BME280;49174;43.198;27.824;2022-12-20T12:22:27;103477.72;;;7.72;64.21
63090;BME280;49174;43.198;27.824;2022-12-20T12:24:59;103471.81;;;7.67;65.70
63090;BME280;49174;43.198;27.824;2022-12-20T12:27:26;103476.84;;;7.72;65.85
63090;BME280;49174;43.198;27.824;2022-12-20T12:29:54;103466.19;;;7.70;64.48
63090;BME280;49174;43.198;27.824;2022-12-20T12:32:25;103477.06;;;7.69;64.96
63090;BME280;49174;43.198;27.824;2022-12-20T12:35:22;103467.06;;;7.71;65.04
63090;BME280;49174;43.198;27.824;2022-12-20T12:45:48;103475.50;;;7.28;63.81
63090;BME280;49174;43.198;27.824;2022-12-20T12:48:22;103469.59;;;7.23;64.68
63090;BME280;49174;43.198;27.824;2022-12-20T12:50:53;103467.03;;;7.08;65.48
63090;BME280;49174;43.198;27.824;2022-12-20T12:53:51;103457.34;;;6.93;65.85
63090;BME280;49174;43.198;27.824;2022-12-20T13:04:56;103459.09;;;6.41;67.64
63090;BME280;49174;43.198;27.824;2022-12-20T13:09:59;103459.59;;;6.34;67.58
63090;BME280;49174;43.198;27.824;2022-12-20T13:17:57;103459.91;;;6.29;67.34
63090;BME280;49174;43.198;27.824;2022-12-20T13:20:32;103460.09;;;6.26;67.90
63090;BME280;49174;43.198;27.824;2022-12-20T13:25:34;103451.25;;;6.38;67.81
63090;BME280;49174;43.198;27.824;2022-12-20T13:30:45;103457.47;;;6.39;68.70
63090;BME280;49174;43.198;27.824;2022-12-20T13:33:43;103452.91;;;6.26;69.44
63090;BME280;49174;43.198;27.824;2022-12-20T13:41:24;103447.97;;;6.20;69.95
63090;BME280;49174;43.198;27.824;2022-12-20T13:43:55;103445.41;;;6.19;68.61
63090;BME280;49174;43.198;27.824;2022-12-20T13:49:20;103428.06;;;6.24;69.33
63090;BME280;49174;43.198;27.824;2022-12-20T13:51:48;103427.44;;;6.34;69.34
63090;BME280;49174;43.198;27.824;2022-12-20T14:05:43;103406.41;;;6.40;68.73
63090;BME280;49174;43.198;27.824;2022-12-20T14:08:20;103398.16;;;6.43;68.16
63090;BME280;49174;43.198;27.824;2022-12-20T14:10:47;103409.50;;;6.34;68.69
63090;BME280;49174;43.198;27.824;2022-12-20T14:13:26;103405.00;;;6.35;69.50
63090;BME280;49174;43.198;27.824;2022-12-20T14:15:52;103398.47;;;6.39;69.05
63090;BME280;49174;43.198;27.824;2022-12-20T14:18:20;103386.91;;;6.51;68.77
63090;BME280;49174;43.198;27.824;2022-12-20T14:20:50;103392.28;;;6.51;68.89
63090;BME280;49174;43.198;27.824;2022-12-20T14:23:18;103393.34;;;6.48;70.27
63090;BME280;49174;43.198;27.824;2022-12-20T14:25:50;103379.59;;;6.40;70.31
63090;BME280;49174;43.198;27.824;2022-12-20T14:30:43;103376.13;;;6.25;71.24
63090;BME280;49174;43.198;27.824;2022-12-20T14:33:20;103369.59;;;6.17;72.03
63090;BME280;49174;43.198;27.824;2022-12-20T14:35:49;103368.53;;;6.19;71.37
63090;BME280;49174;43.198;27.824;2022-12-20T14:38:27;103364.31;;;6.15;71.09
63090;BME280;49174;43.198;27.824;2022-12-20T14:40:53;103365.06;;;6.04;72.55
63090;BME280;49174;43.198;27.824;2022-12-20T14:43:40;103358.25;;;5.99;73.20
63090;BME280;49174;43.198;27.824;2022-12-20T14:46:17;103356.56;;;5.98;72.35
63090;BME280;49174;43.198;27.824;2022-12-20T14:48:44;103356.16;;;5.90;72.49
63090;BME280;49174;43.198;27.824;2022-12-20T14:51:11;103360.66;;;5.89;73.81
63090;BME280;49174;43.198;27.824;2022-12-20T14:53:39;103358.28;;;5.85;72.75